sensor_id;sensor_type;location;lat;lon;timestamp;pressure;altitude;pressure_sealevel;temperature;humidity
38033;BME280;23841;48.524;1.342;2023-06-04T00:01:05;99318.00;;;19.50;47.07
38033;BME280;23841;48.524;1.342;2023-06-04T00:03:31;99312.72;;;19.48;47.05
38033;BME280;23841;48.524;1.342;2023-06-04T00:05:56;99313.69;;;19.47;46.67
38033;BME280;23841;48.524;1.342;2023-06-04T00:08:22;99315.50;;;19.47;46.99
38033;BME280;23841;48.524;1.342;2023-06-04T00:10:47;99319.16;;;19.45;47.02
38033;BME280;23841;48.524;1.342;2023-06-04T00:13:13;99313.94;;;19.42;46.91
38033;BME280;23841;48.524;1.342;2023-06-04T00:15:39;99308.66;;;19.41;46.91
38033;BME280;23841;48.524;1.342;2023-06-04T00:18:04;99310.50;;;19.40;46.79
38033;BME280;23841;48.524;1.342;2023-06-04T00:20:30;99308.94;;;19.36;46.99
38033;BME280;23841;48.524;1.342;2023-06-04T00:22:55;99317.00;;;19.36;46.84
38033;BME280;23841;48.524;1.342;2023-06-04T00:25:21;99314.31;;;19.36;46.77
38033;BME280;23841;48.524;1.342;2023-06-04T00:27:46;99309.88;;;19.35;46.90
38033;BME280;23841;48.524;1.342;2023-06-04T00:30:12;99306.44;;;19.33;46.68
38033;BME280;23841;48.524;1.342;2023-06-04T00:32:37;99307.38;;;19.32;46.72
38033;BME280;23841;48.524;1.342;2023-06-04T00:35:03;99304.69;;;19.32;46.48
38033;BME280;23841;48.524;1.342;2023-06-04T00:37:29;99315.53;;;19.31;46.58
38033;BME280;23841;48.524;1.342;2023-06-04T00:39:54;99320.22;;;19.27;46.80
38033;BME280;23841;48.524;1.342;2023-06-04T00:42:20;99313.88;;;19.28;46.59
38033;BME280;23841;48.524;1.342;2023-06-04T00:44:46;99307.03;;;19.22;46.64
38033;BME280;23841;48.524;1.342;2023-06-04T00:47:16;99310.41;;;19.26;46.58
38033;BME280;23841;48.524;1.342;2023-06-04T00:49:42;99312.31;;;19.24;46.53
38033;BME280;23841;48.524;1.342;2023-06-04T00:52:08;99311.38;;;19.25;46.75
38033;BME280;23841;48.524;1.342;2023-06-04T00:54:35;99303.44;;;19.22;46.89
38033;BME280;23841;48.524;1.342;2023-06-04T00:57:01;99301.75;;;19.21;46.70
38033;BME280;23841;48.524;1.342;2023-06-04T00:59:29;99292.00;;;19.18;47.01
38033;BME280;23841;48.524;1.342;2023-06-04T01:04:42;99316.34;;;19.17;46.98
38033;BME280;23841;48.524;1.342;2023-06-04T01:07:09;99309.28;;;19.14;46.69
38033;BME280;23841;48.524;1.342;2023-06-04T01:09:38;99313.03;;;19.12;47.10
38033;BME280;23841;48.524;1.342;2023-06-04T01:12:04;99323.78;;;19.12;47.06
38033;BME280;23841;48.524;1.342;2023-06-04T01:14:30;99320.34;;;19.09;47.32
38033;BME280;23841;48.524;1.342;2023-06-04T01:22:11;99327.63;;;19.07;48.08
38033;BME280;23841;48.524;1.342;2023-06-04T01:24:52;99318.59;;;19.08;48.06
38033;BME280;23841;48.524;1.342;2023-06-04T01:27:21;99317.78;;;19.06;48.20
38033;BME280;23841;48.524;1.342;2023-06-04T01:29:47;99317.88;;;19.05;48.42
38033;BME280;23841;48.524;1.342;2023-06-04T01:32:16;99325.88;;;19.06;48.23
38033;BME280;23841;48.524;1.342;2023-06-04T01:34:46;99322.31;;;19.06;48.31
38033;BME280;23841;48.524;1.342;2023-06-04T01:37:12;99318.78;;;19.05;48.76
38033;BME280;23841;48.524;1.342;2023-06-04T01:39:38;99323.19;;;19.06;48.37
38033;BME280;23841;48.524;1.342;2023-06-04T01:42:04;99324.16;;;19.05;48.04
38033;BME280;23841;48.524;1.342;2023-06-04T01:44:29;99318.78;;;19.05;47.77
38033;BME280;23841;48.524;1.342;2023-06-04T01:46:55;99323.34;;;19.03;47.48
38033;BME280;23841;48.524;1.342;2023-06-04T01:49:20;99316.31;;;19.01;47.31
38033;BME280;23841;48.524;1.342;2023-06-04T01:51:46;99318.06;;;19.02;47.45
38033;BME280;23841;48.524;1.342;2023-06-04T01:54:11;99309.19;;;19.00;47.13
38033;BME280;23841;48.524;1.342;2023-06-04T01:56:36;99311.19;;;18.96;47.24
38033;BME280;23841;48.524;1.342;2023-06-04T01:59:02;99306.75;;;18.95;47.24
38033;BME280;23841;48.524;1.342;2023-06-04T02:01:27;99312.16;;;18.95;47.30
38033;BME280;23841;48.524;1.342;2023-06-04T02:03:53;99309.63;;;18.92;47.01
38033;BME280;23841;48.524;1.342;2023-06-04T02:06:18;99316.91;;;18.90;47.12
38033;BME280;23841;48.524;1.342;2023-06-04T02:08:43;99306.16;;;18.90;47.09
38033;BME280;23841;48.524;1.342;2023-06-04T02:11:09;99313.38;;;18.89;46.81
38033;BME280;23841;48.524;1.342;2023-06-04T02:13:35;99305.38;;;18.88;47.01
38033;BME280;23841;48.524;1.342;2023-06-04T02:16:01;99306.38;;;18.85;46.77
38033;BME280;23841;48.524;1.342;2023-06-04T02:18:26;99314.63;;;18.82;46.93
38033;BME280;23841;48.524;1.342;2023-06-04T02:20:52;99308.31;;;18.83;46.85
38033;BME280;23841;48.524;1.342;2023-06-04T02:23:18;99303.06;;;18.80;47.11
38033;BME280;23841;48.524;1.342;2023-06-04T02:25:45;99316.53;;;18.80;46.96
38033;BME280;23841;48.524;1.342;2023-06-04T02:28:10;99306.75;;;18.79;47.13
38033;BME280;23841;48.524;1.342;2023-06-04T02:30:36;99307.78;;;18.76;47.14
38033;BME280;23841;48.524;1.342;2023-06-04T02:33:02;99307.78;;;18.76;47.07
38033;BME280;23841;48.524;1.342;2023-06-04T02:35:29;99306.81;;;18.77;47.22
38033;BME280;23841;48.524;1.342;2023-06-04T02:37:55;99304.28;;;18.74;47.19
38033;BME280;23841;48.524;1.342;2023-06-04T02:40:27;99307.06;;;18.73;47.04
38033;BME280;23841;48.524;1.342;2023-06-04T02:42:54;99305.41;;;18.70;47.07
38033;BME280;23841;48.524;1.342;2023-06-04T02:45:20;99302.72;;;18.70;47.01
38033;BME280;23841;48.524;1.342;2023-06-04T02:47:45;99304.47;;;18.71;46.92
38033;BME280;23841;48.524;1.342;2023-06-04T02:50:12;99298.31;;;18.69;46.88
38033;BME280;23841;48.524;1.342;2023-06-04T02:52:38;99302.88;;;18.67;46.76
38033;BME280;23841;48.524;1.342;2023-06-04T02:55:06;99303.06;;;18.64;47.01
38033;BME280;23841;48.524;1.342;2023-06-04T02:57:32;99297.69;;;18.64;46.94
38033;BME280;23841;48.524;1.342;2023-06-04T02:59:59;99295.06;;;18.63;47.00
38033;BME280;23841;48.524;1.342;2023-06-04T03:02:24;99289.88;;;18.59;46.96
38033;BME280;23841;48.524;1.342;2023-06-04T03:04:50;99298.81;;;18.60;47.02
38033;BME280;23841;48.524;1.342;2023-06-04T03:07:16;99296.13;;;18.60;47.06
38033;BME280;23841;48.524;1.342;2023-06-04T03:09:46;99293.50;;;18.58;46.99
38033;BME280;23841;48.524;1.342;2023-06-04T03:12:11;99298.03;;;18.58;46.98
38033;BME280;23841;48.524;1.342;2023-06-04T03:14:37;99295.41;;;18.56;47.21
38033;BME280;23841;48.524;1.342;2023-06-04T03:17:03;99293.69;;;18.55;47.49
38033;BME280;23841;48.524;1.342;2023-06-04T03:19:36;99292.88;;;18.53;47.20
38033;BME280;23841;48.524;1.342;2023-06-04T03:22:04;99286.56;;;18.54;47.11
38033;BME280;23841;48.524;1.342;2023-06-04T03:24:38;99282.38;;;18.49;47.50
38033;BME280;23841;48.524;1.342;2023-06-04T03:27:05;99294.72;;;18.53;47.05
38033;BME280;23841;48.524;1.342;2023-06-04T03:29:31;99301.97;;;18.51;47.41
38033;BME280;23841;48.524;1.342;2023-06-04T03:31:57;99294.91;;;18.50;47.60
38033;BME280;23841;48.524;1.342;2023-06-04T03:34:23;99289.56;;;18.48;47.57
38033;BME280;23841;48.524;1.342;2023-06-04T03:36:52;99292.34;;;18.47;47.21
38033;BME280;23841;48.524;1.342;2023-06-04T03:39:17;99293.31;;;18.46;47.41
38033;BME280;23841;48.524;1.342;2023-06-04T03:41:43;99293.31;;;18.46;47.60
38033;BME280;23841;48.524;1.342;2023-06-04T03:44:08;99287.94;;;18.46;47.51
38033;BME280;23841;48.524;1.342;2023-06-04T03:46:34;99288.09;;;18.42;47.33
38033;BME280;23841;48.524;1.342;2023-06-04T03:49:00;99288.97;;;18.43;47.36
38033;BME280;23841;48.524;1.342;2023-06-04T03:51:26;99297.13;;;18.41;46.82
38033;BME280;23841;48.524;1.342;2023-06-04T03:53:51;99284.63;;;18.40;47.00
38033;BME280;23841;48.524;1.342;2023-06-04T03:56:17;99295.38;;;18.40;46.80
38033;BME280;23841;48.524;1.342;2023-06-04T03:58:43;99292.88;;;18.37;46.98
38033;BME280;23841;48.524;1.342;2023-06-04T04:01:08;99293.81;;;18.36;47.07
38033;BME280;23841;48.524;1.342;2023-06-04T04:03:36;99294.75;;;18.35;47.40
38033;BME280;23841;48.524;1.342;2023-06-04T04:06:01;99288.59;;;18.33;47.08
38033;BME280;23841;48.524;1.342;2023-06-04T04:08:27;99285.19;;;18.30;47.28
38033;BME280;23841;48.524;1.342;2023-06-04T04:10:59;99286.09;;;18.30;46.94
38033;BME280;23841;48.524;1.342;2023-06-04T04:13:25;99299.53;;;18.30;47.01
38033;BME280;23841;48.524;1.342;2023-06-04T04:15:51;99294.16;;;18.30;47.05
38033;BME280;23841;48.524;1.342;2023-06-04T04:18:18;99297.78;;;18.29;47.15
38033;BME280;23841;48.524;1.342;2023-06-04T04:20:45;99291.53;;;18.29;46.93
38033;BME280;23841;48.524;1.342;2023-06-04T04:23:11;99293.44;;;18.27;47.29
38033;BME280;23841;48.524;1.342;2023-06-04T04:25:37;99288.22;;;18.23;46.91
38033;BME280;23841;48.524;1.342;2023-06-04T04:28:04;99298.97;;;18.23;47.06
38033;BME280;23841;48.524;1.342;2023-06-04T04:30:33;99294.47;;;18.24;46.89
38033;BME280;23841;48.524;1.342;2023-06-04T04:33:00;99293.75;;;18.20;46.96
38033;BME280;23841;48.524;1.342;2023-06-04T04:35:25;99290.28;;;18.18;47.16
38033;BME280;23841;48.524;1.342;2023-06-04T04:37:51;99290.38;;;18.17;46.90
38033;BME280;23841;48.524;1.342;2023-06-04T04:40:16;99296.59;;;18.17;47.06
38033;BME280;23841;48.524;1.342;2023-06-04T04:42:42;99299.28;;;18.17;47.19
38033;BME280;23841;48.524;1.342;2023-06-04T04:45:08;99307.44;;;18.16;46.87
38033;BME280;23841;48.524;1.342;2023-06-04T04:47:33;99298.59;;;18.14;47.33
38033;BME280;23841;48.524;1.342;2023-06-04T04:49:59;99302.22;;;18.13;47.01
38033;BME280;23841;48.524;1.342;2023-06-04T04:52:24;99301.38;;;18.12;47.17
38033;BME280;23841;48.524;1.342;2023-06-04T04:54:50;99305.88;;;18.12;46.96
38033;BME280;23841;48.524;1.342;2023-06-04T04:57:15;99309.50;;;18.11;47.05
38033;BME280;23841;48.524;1.342;2023-06-04T04:59:41;99315.03;;;18.07;47.47
38033;BME280;23841;48.524;1.342;2023-06-04T05:02:06;99316.00;;;18.06;47.29
38033;BME280;23841;48.524;1.342;2023-06-04T05:04:32;99316.94;;;18.05;47.00
38033;BME280;23841;48.524;1.342;2023-06-04T05:06:57;99319.66;;;18.05;47.07
38033;BME280;23841;48.524;1.342;2023-06-04T05:09:22;99316.16;;;18.03;47.01
38033;BME280;23841;48.524;1.342;2023-06-04T05:11:48;99318.84;;;18.03;47.42
38033;BME280;23841;48.524;1.342;2023-06-04T05:14:13;99325.19;;;18.02;47.41
38033;BME280;23841;48.524;1.342;2023-06-04T05:16:39;99324.38;;;18.00;47.13
38033;BME280;23841;48.524;1.342;2023-06-04T05:19:06;99321.78;;;17.99;47.51
38033;BME280;23841;48.524;1.342;2023-06-04T05:21:31;99318.22;;;17.98;47.22
38033;BME280;23841;48.524;1.342;2023-06-04T05:23:56;99320.91;;;17.98;47.42
38033;BME280;23841;48.524;1.342;2023-06-04T05:26:22;99312.22;;;17.93;47.50
38033;BME280;23841;48.524;1.342;2023-06-04T05:28:50;99312.22;;;17.93;47.49
38033;BME280;23841;48.524;1.342;2023-06-04T05:31:16;99326.59;;;17.92;47.53
38033;BME280;23841;48.524;1.342;2023-06-04T05:33:43;99315.13;;;17.88;47.39
38033;BME280;23841;48.524;1.342;2023-06-04T05:36:09;99327.66;;;17.88;47.46
38033;BME280;23841;48.524;1.342;2023-06-04T05:38:34;99315.41;;;17.82;47.49
38033;BME280;23841;48.524;1.342;2023-06-04T05:41:01;99323.22;;;17.87;47.36
38033;BME280;23841;48.524;1.342;2023-06-04T05:43:26;99326.09;;;17.84;47.47
38033;BME280;23841;48.524;1.342;2023-06-04T05:45:52;99325.13;;;17.85;47.69
38033;BME280;23841;48.524;1.342;2023-06-04T05:48:17;99330.84;;;17.79;47.73
38033;BME280;23841;48.524;1.342;2023-06-04T05:50:43;99336.06;;;17.82;47.98
38033;BME280;23841;48.524;1.342;2023-06-04T05:53:09;99335.25;;;17.80;47.89
38033;BME280;23841;48.524;1.342;2023-06-04T05:55:34;99337.94;;;17.80;47.85
38033;BME280;23841;48.524;1.342;2023-06-04T05:58:00;99343.22;;;17.81;47.86
38033;BME280;23841;48.524;1.342;2023-06-04T06:00:25;99351.38;;;17.80;47.98
38033;BME280;23841;48.524;1.342;2023-06-04T06:02:51;99343.31;;;17.80;47.83
38033;BME280;23841;48.524;1.342;2023-06-04T06:05:18;99354.13;;;17.78;47.84
38033;BME280;23841;48.524;1.342;2023-06-04T06:07:45;99354.28;;;17.75;48.06
38033;BME280;23841;48.524;1.342;2023-06-04T06:10:10;99359.75;;;17.73;48.32
38033;BME280;23841;48.524;1.342;2023-06-04T06:12:36;99359.75;;;17.73;48.37
38033;BME280;23841;48.524;1.342;2023-06-04T06:15:01;99360.69;;;17.72;48.31
38033;BME280;23841;48.524;1.342;2023-06-04T06:17:27;99358.84;;;17.73;48.16
38033;BME280;23841;48.524;1.342;2023-06-04T06:19:54;99363.38;;;17.72;48.59
38033;BME280;23841;48.524;1.342;2023-06-04T06:22:19;99358.16;;;17.69;48.36
38033;BME280;23841;48.524;1.342;2023-06-04T06:24:45;99361.78;;;17.68;48.45
38033;BME280;23841;48.524;1.342;2023-06-04T06:27:10;99361.78;;;17.68;48.28
38033;BME280;23841;48.524;1.342;2023-06-04T06:29:36;99357.50;;;17.64;48.58
38033;BME280;23841;48.524;1.342;2023-06-04T06:32:02;99362.81;;;17.66;48.64
38033;BME280;23841;48.524;1.342;2023-06-04T06:34:28;99360.19;;;17.64;48.98
38033;BME280;23841;48.524;1.342;2023-06-04T06:36:53;99365.56;;;17.64;48.87
38033;BME280;23841;48.524;1.342;2023-06-04T06:39:18;99366.47;;;17.65;48.94
38033;BME280;23841;48.524;1.342;2023-06-04T06:41:45;99362.88;;;17.64;48.82
38033;BME280;23841;48.524;1.342;2023-06-04T06:44:10;99366.50;;;17.63;48.96
38033;BME280;23841;48.524;1.342;2023-06-04T06:46:36;99363.91;;;17.62;48.99
38033;BME280;23841;48.524;1.342;2023-06-04T06:49:01;99371.09;;;17.61;49.00
38033;BME280;23841;48.524;1.342;2023-06-04T06:51:27;99363.91;;;17.62;49.24
38033;BME280;23841;48.524;1.342;2023-06-04T06:53:52;99368.41;;;17.61;49.32
38033;BME280;23841;48.524;1.342;2023-06-04T06:56:18;99362.22;;;17.59;49.32
38033;BME280;23841;48.524;1.342;2023-06-04T06:58:44;99357.66;;;17.61;49.33
38033;BME280;23841;48.524;1.342;2023-06-04T07:01:09;99358.53;;;17.62;49.50
38033;BME280;23841;48.524;1.342;2023-06-04T07:03:35;99362.09;;;17.62;49.53
38033;BME280;23841;48.524;1.342;2023-06-04T07:06:01;99371.88;;;17.63;49.41
38033;BME280;23841;48.524;1.342;2023-06-04T07:08:26;99365.91;;;17.58;49.66
38033;BME280;23841;48.524;1.342;2023-06-04T07:10:52;99368.56;;;17.58;49.65
38033;BME280;23841;48.524;1.342;2023-06-04T07:13:17;99363.28;;;17.56;49.73
38033;BME280;23841;48.524;1.342;2023-06-04T07:15:42;99369.50;;;17.57;49.74
38033;BME280;23841;48.524;1.342;2023-06-04T07:18:08;99364.38;;;17.52;49.90
38033;BME280;23841;48.524;1.342;2023-06-04T07:20:33;99375.75;;;17.57;49.89
38033;BME280;23841;48.524;1.342;2023-06-04T07:22:59;99371.34;;;17.56;50.11
38033;BME280;23841;48.524;1.342;2023-06-04T07:25:24;99370.53;;;17.54;50.02
38033;BME280;23841;48.524;1.342;2023-06-04T07:27:50;99373.94;;;17.58;49.99
38033;BME280;23841;48.524;1.342;2023-06-04T07:30:16;99374.88;;;17.57;50.21
38033;BME280;23841;48.524;1.342;2023-06-04T07:32:46;99373.13;;;17.56;50.06
38033;BME280;23841;48.524;1.342;2023-06-04T07:35:12;99373.13;;;17.56;50.12
38033;BME280;23841;48.524;1.342;2023-06-04T07:37:37;99371.25;;;17.58;50.32
38033;BME280;23841;48.524;1.342;2023-06-04T07:40:03;99376.63;;;17.58;50.13
38033;BME280;23841;48.524;1.342;2023-06-04T07:42:29;99369.50;;;17.57;50.14
38033;BME280;23841;48.524;1.342;2023-06-04T07:44:54;99363.19;;;17.58;50.40
38033;BME280;23841;48.524;1.342;2023-06-04T07:47:21;99373.88;;;17.60;50.21
38033;BME280;23841;48.524;1.342;2023-06-04T07:49:47;99370.28;;;17.59;50.30
38033;BME280;23841;48.524;1.342;2023-06-04T07:52:12;99367.00;;;17.54;50.59
38033;BME280;23841;48.524;1.342;2023-06-04T07:54:38;99365.00;;;17.57;50.60
38033;BME280;23841;48.524;1.342;2023-06-04T07:57:06;99373.88;;;17.60;50.92
38033;BME280;23841;48.524;1.342;2023-06-04T07:59:31;99359.72;;;17.56;50.93
38033;BME280;23841;48.524;1.342;2023-06-04T08:01:57;99368.56;;;17.58;50.92
38033;BME280;23841;48.524;1.342;2023-06-04T08:04:22;99362.41;;;17.56;51.05
38033;BME280;23841;48.524;1.342;2023-06-04T08:06:48;99367.59;;;17.59;51.08
38033;BME280;23841;48.524;1.342;2023-06-04T08:09:14;99365.97;;;17.56;51.32
38033;BME280;23841;48.524;1.342;2023-06-04T08:11:41;99370.28;;;17.59;51.16
38033;BME280;23841;48.524;1.342;2023-06-04T08:14:07;99376.47;;;17.61;51.21
38033;BME280;23841;48.524;1.342;2023-06-04T08:16:33;99374.72;;;17.60;51.21
38033;BME280;23841;48.524;1.342;2023-06-04T08:18:58;99371.09;;;17.61;51.47
38033;BME280;23841;48.524;1.342;2023-06-04T08:21:27;99365.72;;;17.61;51.23
38033;BME280;23841;48.524;1.342;2023-06-04T08:23:53;99363.81;;;17.63;51.36
38033;BME280;23841;48.524;1.342;2023-06-04T08:26:19;99371.03;;;17.63;51.40
38033;BME280;23841;48.524;1.342;2023-06-04T08:28:47;99365.56;;;17.64;51.28
38033;BME280;23841;48.524;1.342;2023-06-04T08:31:13;99369.06;;;17.66;51.31
38033;BME280;23841;48.524;1.342;2023-06-04T08:33:38;99367.25;;;17.67;51.34
38033;BME280;23841;48.524;1.342;2023-06-04T08:36:04;99370.66;;;17.70;51.24
38033;BME280;23841;48.524;1.342;2023-06-04T08:38:30;99367.81;;;17.73;51.43
38033;BME280;23841;48.524;1.342;2023-06-04T08:40:58;99364.31;;;17.71;51.22
38033;BME280;23841;48.524;1.342;2023-06-04T08:43:29;99365.13;;;17.73;51.15
38033;BME280;23841;48.524;1.342;2023-06-04T08:45:58;99367.72;;;17.75;51.41
38033;BME280;23841;48.524;1.342;2023-06-04T08:48:25;99373.09;;;17.75;51.58
38033;BME280;23841;48.524;1.342;2023-06-04T08:50:54;99378.41;;;17.77;51.51
38033;BME280;23841;48.524;1.342;2023-06-04T08:53:22;99369.47;;;17.76;51.77
38033;BME280;23841;48.524;1.342;2023-06-04T08:55:50;99372.94;;;17.78;51.75
38033;BME280;23841;48.524;1.342;2023-06-04T08:58:16;99375.53;;;17.80;51.42
38033;BME280;23841;48.524;1.342;2023-06-04T09:00:43;99373.66;;;17.82;51.57
38033;BME280;23841;48.524;1.342;2023-06-04T09:03:09;99375.53;;;17.80;51.88
38033;BME280;23841;48.524;1.342;2023-06-04T09:05:36;99384.25;;;17.85;51.64
38033;BME280;23841;48.524;1.342;2023-06-04T09:08:04;99393.09;;;17.87;51.88
38033;BME280;23841;48.524;1.342;2023-06-04T09:10:34;99389.47;;;17.88;51.91
38033;BME280;23841;48.524;1.342;2023-06-04T09:13:01;99388.53;;;17.89;51.93
38033;BME280;23841;48.524;1.342;2023-06-04T09:15:28;99390.28;;;17.90;51.87
38033;BME280;23841;48.524;1.342;2023-06-04T09:17:54;99390.22;;;17.91;52.10
38033;BME280;23841;48.524;1.342;2023-06-04T09:20:23;99383.06;;;17.90;52.04
38033;BME280;23841;48.524;1.342;2023-06-04T09:22:49;99391.81;;;17.96;52.40
38033;BME280;23841;48.524;1.342;2023-06-04T09:25:26;99387.47;;;17.93;52.25
38033;BME280;23841;48.524;1.342;2023-06-04T09:27:58;99383.66;;;17.97;52.53
38033;BME280;23841;48.524;1.342;2023-06-04T09:30:31;99382.78;;;17.97;52.40
38033;BME280;23841;48.524;1.342;2023-06-04T09:33:06;99390.63;;;18.01;52.25
38033;BME280;23841;48.524;1.342;2023-06-04T09:35:31;99378.13;;;18.00;52.28
38033;BME280;23841;48.524;1.342;2023-06-04T09:37:57;99383.34;;;18.03;52.41
38033;BME280;23841;48.524;1.342;2023-06-04T09:40:23;99384.22;;;18.04;52.66
38033;BME280;23841;48.524;1.342;2023-06-04T09:42:50;99386.03;;;18.03;52.80
38033;BME280;23841;48.524;1.342;2023-06-04T09:45:34;99402.72;;;18.10;52.82
38033;BME280;23841;48.524;1.342;2023-06-04T09:48:01;99390.09;;;18.12;52.77
38033;BME280;23841;48.524;1.342;2023-06-04T09:52:53;99391.72;;;18.15;52.97
38033;BME280;23841;48.524;1.342;2023-06-04T09:55:19;99398.84;;;18.16;52.90
38033;BME280;23841;48.524;1.342;2023-06-04T09:57:50;99404.06;;;18.19;52.77
38033;BME280;23841;48.524;1.342;2023-06-04T10:00:21;99403.13;;;18.20;52.97
38033;BME280;23841;48.524;1.342;2023-06-04T10:02:48;99400.34;;;18.21;53.21
38033;BME280;23841;48.524;1.342;2023-06-04T10:05:15;99411.00;;;18.23;53.00
38033;BME280;23841;48.524;1.342;2023-06-04T10:07:45;99409.06;;;18.27;52.74
38033;BME280;23841;48.524;1.342;2023-06-04T10:10:15;99411.75;;;18.27;52.79
38033;BME280;23841;48.524;1.342;2023-06-04T10:12:41;99404.53;;;18.27;53.32
38033;BME280;23841;48.524;1.342;2023-06-04T10:15:11;99410.72;;;18.29;53.49
38033;BME280;23841;48.524;1.342;2023-06-04T10:17:37;99422.16;;;18.33;53.31
38033;BME280;23841;48.524;1.342;2023-06-04T10:20:03;99419.34;;;18.36;53.31
38033;BME280;23841;48.524;1.342;2023-06-04T10:22:31;99417.50;;;18.36;53.28
38033;BME280;23841;48.524;1.342;2023-06-04T10:24:58;99422.88;;;18.36;53.35
38033;BME280;23841;48.524;1.342;2023-06-04T10:27:24;99414.81;;;18.36;53.39
38033;BME280;23841;48.524;1.342;2023-06-04T10:29:50;99424.47;;;18.40;53.37
38033;BME280;23841;48.524;1.342;2023-06-04T10:32:16;99418.91;;;18.43;53.57
38033;BME280;23841;48.524;1.342;2023-06-04T10:34:42;99426.06;;;18.45;52.98
38033;BME280;23841;48.524;1.342;2023-06-04T10:37:19;99417.91;;;18.46;53.08
38033;BME280;23841;48.524;1.342;2023-06-04T10:39:51;99424.84;;;18.50;53.34
38033;BME280;23841;48.524;1.342;2023-06-04T10:42:17;99420.97;;;18.56;52.90
38033;BME280;23841;48.524;1.342;2023-06-04T10:44:47;99420.03;;;18.57;53.07
38033;BME280;23841;48.524;1.342;2023-06-04T10:47:24;99421.78;;;18.58;53.33
38033;BME280;23841;48.524;1.342;2023-06-04T10:49:50;99418.91;;;18.61;53.04
38033;BME280;23841;48.524;1.342;2023-06-04T10:52:17;99418.91;;;18.61;53.13
38033;BME280;23841;48.524;1.342;2023-06-04T10:54:43;99417.94;;;18.62;53.21
38033;BME280;23841;48.524;1.342;2023-06-04T10:57:13;99421.44;;;18.64;52.97
38033;BME280;23841;48.524;1.342;2023-06-04T10:59:39;99418.66;;;18.66;52.96
38033;BME280;23841;48.524;1.342;2023-06-04T11:02:06;99410.69;;;18.64;53.16
38033;BME280;23841;48.524;1.342;2023-06-04T11:04:32;99411.41;;;18.68;53.13
38033;BME280;23841;48.524;1.342;2023-06-04T11:07:05;99412.97;;;18.72;53.06
38033;BME280;23841;48.524;1.342;2023-06-04T11:09:40;99412.97;;;18.72;53.05
38033;BME280;23841;48.524;1.342;2023-06-04T11:12:12;99407.59;;;18.72;53.05
38033;BME280;23841;48.524;1.342;2023-06-04T11:14:37;99410.03;;;18.76;52.92
38033;BME280;23841;48.524;1.342;2023-06-04T11:17:10;99417.16;;;18.77;53.17
38033;BME280;23841;48.524;1.342;2023-06-04T11:19:37;99414.38;;;18.79;52.88
38033;BME280;23841;48.524;1.342;2023-06-04T11:22:06;99407.97;;;18.82;53.12
38033;BME280;23841;48.524;1.342;2023-06-04T11:24:35;99414.13;;;18.84;52.75
38033;BME280;23841;48.524;1.342;2023-06-04T11:27:01;99408.56;;;18.87;53.03
38033;BME280;23841;48.524;1.342;2023-06-04T11:29:27;99402.28;;;18.88;52.97
38033;BME280;23841;48.524;1.342;2023-06-04T11:31:53;99416.50;;;18.90;52.83
38033;BME280;23841;48.524;1.342;2023-06-04T11:34:23;99418.97;;;18.95;52.78
38033;BME280;23841;48.524;1.342;2023-06-04T11:36:49;99411.75;;;18.95;52.98
38033;BME280;23841;48.524;1.342;2023-06-04T11:39:15;99411.56;;;18.98;52.58
38033;BME280;23841;48.524;1.342;2023-06-04T11:41:40;99408.72;;;19.01;52.47
38033;BME280;23841;48.524;1.342;2023-06-04T11:44:06;99407.84;;;19.01;52.43
38033;BME280;23841;48.524;1.342;2023-06-04T11:46:32;99409.50;;;19.03;52.17
38033;BME280;23841;48.524;1.342;2023-06-04T11:48:59;99404.97;;;19.04;52.42
38033;BME280;23841;48.524;1.342;2023-06-04T11:51:25;99406.63;;;19.06;52.21
38033;BME280;23841;48.524;1.342;2023-06-04T11:53:51;99401.25;;;19.06;52.27
38033;BME280;23841;48.524;1.342;2023-06-04T11:56:17;99399.34;;;19.08;52.18
38033;BME280;23841;48.524;1.342;2023-06-04T11:58:43;99384.94;;;19.09;52.17
38033;BME280;23841;48.524;1.342;2023-06-04T12:01:11;99390.94;;;19.15;52.32
38033;BME280;23841;48.524;1.342;2023-06-04T12:03:38;99386.44;;;19.15;52.20
38033;BME280;23841;48.524;1.342;2023-06-04T12:06:14;99393.44;;;19.18;52.04
38033;BME280;23841;48.524;1.342;2023-06-04T12:08:50;99398.69;;;19.21;51.75
38033;BME280;23841;48.524;1.342;2023-06-04T12:11:34;99396.66;;;19.24;51.86
38033;BME280;23841;48.524;1.342;2023-06-04T12:14:05;99393.97;;;19.24;51.85
38033;BME280;23841;48.524;1.342;2023-06-04T12:16:31;99394.84;;;19.25;51.92
38033;BME280;23841;48.524;1.342;2023-06-04T12:19:10;99394.69;;;19.28;51.58
38033;BME280;23841;48.524;1.342;2023-06-04T12:21:37;99385.03;;;19.24;51.73
38033;BME280;23841;48.524;1.342;2023-06-04T12:24:09;99393.38;;;19.35;51.67
38033;BME280;23841;48.524;1.342;2023-06-04T12:26:36;99391.38;;;19.39;50.89
38033;BME280;23841;48.524;1.342;2023-06-04T12:29:13;99401.28;;;19.38;51.14
38033;BME280;23841;48.524;1.342;2023-06-04T12:31:39;99389.81;;;19.35;51.18
38033;BME280;23841;48.524;1.342;2023-06-04T12:34:05;99394.31;;;19.34;51.02
38033;BME280;23841;48.524;1.342;2023-06-04T12:36:31;99389.91;;;19.33;51.08
38033;BME280;23841;48.524;1.342;2023-06-04T12:39:00;99394.16;;;19.37;50.53
38033;BME280;23841;48.524;1.342;2023-06-04T12:41:27;99385.09;;;19.38;50.82
38033;BME280;23841;48.524;1.342;2023-06-04T12:43:53;99384.06;;;19.41;50.85
38033;BME280;23841;48.524;1.342;2023-06-04T12:46:18;99380.53;;;19.40;50.77
38033;BME280;23841;48.524;1.342;2023-06-04T12:48:45;99386.50;;;19.45;50.89
38033;BME280;23841;48.524;1.342;2023-06-04T12:51:11;99383.56;;;19.50;50.39
38033;BME280;23841;48.524;1.342;2023-06-04T12:53:42;99379.03;;;19.51;50.27
38033;BME280;23841;48.524;1.342;2023-06-04T12:56:08;99388.94;;;19.50;50.35
38033;BME280;23841;48.524;1.342;2023-06-04T12:58:34;99370.84;;;19.52;50.47
38033;BME280;23841;48.524;1.342;2023-06-04T13:01:00;99372.31;;;19.58;50.57
38033;BME280;23841;48.524;1.342;2023-06-04T13:03:26;99379.38;;;19.60;50.01
38033;BME280;23841;48.524;1.342;2023-06-04T13:05:52;99382.84;;;19.63;49.65
38033;BME280;23841;48.524;1.342;2023-06-04T13:08:19;99388.06;;;19.66;49.46